Johnny Sr — WTP4938 — position and weather

sailwx.info

Track history (hours):
 
Tides and Currents Weather Stations Pressure Air Temp Water Temp Dewpoint Dewpoint Depression Visibility Wind Speed Wind Dir Waves Ship Positions

Johnny Sr

Owner: CALLAIS AND Sons LLC, CUT OFF, LA. More information available from US FCC via Universal Licensing System and Coast Guard Vessel Documentation Center.

Last reported at 2018-Feb-19 07:30 UTC. Time now 2018-Feb-19 07:57 UTC.
Position N 29°29' W 094°36'.

; draft 3 m.

Type: Towing. MMSI: 367005190.

Date/timePositionNaut miles runAvg speedWind from/ knotsBaromVisibWave heightAir tempDewpointWater temp
2018-Feb-19 07:30N 29°29' W 094°36'0 0.0
2018-Feb-19 07:00N 29°29' W 094°36'0 0.0
2018-Feb-19 06:30N 29°29' W 094°36'0 0.0
2018-Feb-19 06:00N 29°29' W 094°36'0 0.0
2018-Feb-19 05:30N 29°29' W 094°36'0 0.0
2018-Feb-19 04:57N 29°29' W 094°36'0 0.0
2018-Feb-19 04:26N 29°29' W 094°36'20 0.5
2018-Feb-17 15:18N 29°37' W 094°57'2 5.5
2018-Feb-17 15:00N 29°38' W 094°58'3 5.8
2018-Feb-17 14:27N 29°41' W 094°59'  
2018-Feb-13 22:01N 29°36' W 094°57'0 8.4
2018-Feb-13 22:00N 29°36' W 094°57'36 4.5
2018-Feb-13 13:52N 29°40' W 094°15'3 6.5
2018-Feb-13 13:28N 29°41' W 094°12'4 6.5
2018-Feb-13 12:56N 29°42' W 094°08'3 6.1
2018-Feb-13 12:30N 29°44' W 094°06'3 5.4
2018-Feb-13 12:00N 29°45' W 094°04'3 5.7
2018-Feb-13 11:30N 29°47' W 094°01'3 5.5
2018-Feb-13 11:00N 29°49' W 093°59'0 0.8
2018-Feb-13 10:30N 29°49' W 093°58'0 0.0
2018-Feb-13 10:00N 29°49' W 093°58'0 0.0
2018-Feb-13 09:30N 29°49' W 093°58'0 0.0
2018-Feb-13 09:00N 29°49' W 093°58'0 0.2
2018-Feb-13 08:30N 29°49' W 093°58'0 0.1
2018-Feb-13 08:00N 29°49' W 093°59'0 0.0
2018-Feb-13 07:30N 29°49' W 093°59'0 0.1
2018-Feb-13 07:00N 29°49' W 093°59'0 0.0
2018-Feb-13 06:30N 29°49' W 093°59'0 0.1
2018-Feb-13 06:00N 29°49' W 093°59'0 0.0
2018-Feb-13 05:30N 29°49' W 093°59'0 0.0
2018-Feb-13 04:59N 29°49' W 093°59'0 0.0
2018-Feb-13 04:29N 29°49' W 093°59'0 0.0
2018-Feb-13 04:00N 29°49' W 093°59'0 0.1
2018-Feb-13 03:30N 29°49' W 093°59'3 6.1
2018-Feb-13 03:00N 29°51' W 093°56'3 6.5
2018-Feb-13 02:30N 29°54' W 093°54'3 5.7
2018-Feb-13 02:00N 29°56' W 093°52'3 5.8
2018-Feb-13 01:30N 29°59' W 093°50'4 7.6
2018-Feb-13 00:59N 30°00' W 093°46'14 6.7
2018-Feb-12 22:58N 30°04' W 093°31'3 6.5
2018-Feb-12 22:30N 30°04' W 093°27'3 6.8
2018-Feb-12 22:00N 30°04' W 093°23'2 4.0
2018-Feb-12 21:29N 30°04' W 093°21'1 2.4
2018-Feb-12 20:55N 30°05' W 093°20'2 4.1
2018-Feb-12 20:26N 30°06' W 093°19'0 0.0
2018-Feb-12 20:00N 30°06' W 093°19'0 0.2
2018-Feb-12 19:28N 30°06' W 093°19'0 0.4
2018-Feb-12 19:00N 30°06' W 093°19'0 0.0
2018-Feb-12 18:30N 30°06' W 093°19'0 0.3
2018-Feb-12 18:00N 30°06' W 093°19'2 3.7
2018-Feb-12 17:29N 30°08' W 093°20'3 6.9
2018-Feb-12 17:00N 30°11' W 093°19'3 6.4
2018-Feb-12 16:29N 30°13' W 093°16'2 4.1
2018-Feb-12 15:55N 30°15' W 093°14'2 2.3
2018-Feb-12 15:11N 30°15' W 093°13'1 3.8
2018-Feb-12 14:58N 30°15' W 093°12'0 0.0
2018-Feb-12 12:02N 30°15' W 093°12'0 0.0
2018-Feb-12 11:32N 30°15' W 093°12'0 0.0
2018-Feb-12 11:19N 30°15' W 093°12'0 0.0
2018-Feb-12 10:56N 30°15' W 093°12'0 0.0
2018-Feb-12 09:24N 30°15' W 093°12'0 0.0
2018-Feb-12 07:38N 30°15' W 093°12'0 0.0
2018-Feb-12 07:28N 30°15' W 093°12'0 0.0
2018-Feb-12 06:57N 30°15' W 093°12'0 0.0
2018-Feb-12 05:51N 30°15' W 093°12'0 0.1
2018-Feb-12 05:29N 30°15' W 093°12'0 0.0
2018-Feb-12 05:00N 30°15' W 093°12'0 0.0
2018-Feb-12 04:15N 30°15' W 093°12'0 0.0
2018-Feb-12 03:57N 30°15' W 093°12'0 0.0
2018-Feb-12 02:56N 30°15' W 093°12'0 0.1
2018-Feb-12 02:28N 30°15' W 093°12'0 0.0
2018-Feb-12 01:08N 30°15' W 093°12'0 0.3
2018-Feb-12 00:58N 30°15' W 093°12'1 3.1
2018-Feb-12 00:31N 30°15' W 093°14'1 2.0
2018-Feb-12 00:00N 30°14' W 093°15'1 0.9
2018-Feb-11 23:28N 30°14' W 093°15'1 3.0
2018-Feb-11 23:00N 30°13' W 093°16'3 6.2
2018-Feb-11 22:31N 30°11' W 093°19'3 5.1
2018-Feb-11 22:00N 30°09' W 093°20'3 5.7
2018-Feb-11 21:29N 30°06' W 093°19'2 4.3
2018-Feb-11 20:55N 30°05' W 093°17'2 5.7
2018-Feb-11 20:30N 30°03' W 093°16'3 5.5
2018-Feb-11 20:01N 30°01' W 093°14'6 5.8
2018-Feb-11 18:59N 29°56' W 093°09'43 3.9
2018-Feb-11 07:59N 29°51' W 092°20'1 1.8
2018-Feb-11 07:29N 29°50' W 092°19'1 1.9
2018-Feb-11 07:00N 29°50' W 092°18'1 2.3
2018-Feb-11 06:25N 29°49' W 092°17'1 2.6
2018-Feb-11 06:00N 29°49' W 092°16'1 2.7
2018-Feb-11 05:30N 29°48' W 092°15'2 3.2
2018-Feb-11 05:00N 29°47' W 092°13'2 3.5
2018-Feb-11 04:30N 29°47' W 092°11'0 1.0
2018-Feb-11 04:00N 29°47' W 092°10'1 3.0
2018-Feb-11 03:30N 29°47' W 092°09'3 5.8
2018-Feb-11 03:00N 29°48' W 092°06'68 4.5
2018-Feb-10 11:52N 29°32' W 090°50'2 5.8
2018-Feb-10 11:28N 29°32' W 090°47'2 4.8
2018-Feb-10 11:00N 29°33' W 090°45'2 4.6
2018-Feb-10 10:30N 29°35' W 090°43'2 4.7
2018-Feb-10 10:00N 29°37' W 090°42'1 2.1
2018-Feb-10 09:30N 29°36' W 090°41'2 4.0
2018-Feb-10 09:00N 29°35' W 090°39'  
Track history (hours):
 
Tides and Currents Weather Stations Pressure Air Temp Water Temp Dewpoint Dewpoint Depression Visibility Wind Speed Wind Dir Waves Ship Positions

Johnny Sr

Owner: CALLAIS AND Sons LLC, CUT OFF, LA. More information available from US FCC via Universal Licensing System and Coast Guard Vessel Documentation Center.

Last reported at 2018-Feb-19 07:30 UTC. Time now 2018-Feb-19 07:57 UTC.
Position N 29°29' W 094°36'.

; draft 3 m.

Type: Towing. MMSI: 367005190.

Date/timePositionNaut miles runAvg speedWind from/ knotsBaromVisibWave heightAir tempDewpointWater temp
2018-Feb-19 07:30N 29°29' W 094°36'0 0.0
2018-Feb-19 07:00N 29°29' W 094°36'0 0.0
2018-Feb-19 06:30N 29°29' W 094°36'0 0.0
2018-Feb-19 06:00N 29°29' W 094°36'0 0.0
2018-Feb-19 05:30N 29°29' W 094°36'0 0.0
2018-Feb-19 04:57N 29°29' W 094°36'0 0.0
2018-Feb-19 04:26N 29°29' W 094°36'20 0.5
2018-Feb-17 15:18N 29°37' W 094°57'2 5.5
2018-Feb-17 15:00N 29°38' W 094°58'3 5.8
2018-Feb-17 14:27N 29°41' W 094°59'  
2018-Feb-13 22:01N 29°36' W 094°57'0 8.4
2018-Feb-13 22:00N 29°36' W 094°57'36 4.5
2018-Feb-13 13:52N 29°40' W 094°15'3 6.5
2018-Feb-13 13:28N 29°41' W 094°12'4 6.5
2018-Feb-13 12:56N 29°42' W 094°08'3 6.1
2018-Feb-13 12:30N 29°44' W 094°06'3 5.4
2018-Feb-13 12:00N 29°45' W 094°04'3 5.7
2018-Feb-13 11:30N 29°47' W 094°01'3 5.5
2018-Feb-13 11:00N 29°49' W 093°59'0 0.8
2018-Feb-13 10:30N 29°49' W 093°58'0 0.0
2018-Feb-13 10:00N 29°49' W 093°58'0 0.0
2018-Feb-13 09:30N 29°49' W 093°58'0 0.0
2018-Feb-13 09:00N 29°49' W 093°58'0 0.2
2018-Feb-13 08:30N 29°49' W 093°58'0 0.1
2018-Feb-13 08:00N 29°49' W 093°59'0 0.0
2018-Feb-13 07:30N 29°49' W 093°59'0 0.1
2018-Feb-13 07:00N 29°49' W 093°59'0 0.0
2018-Feb-13 06:30N 29°49' W 093°59'0 0.1
2018-Feb-13 06:00N 29°49' W 093°59'0 0.0
2018-Feb-13 05:30N 29°49' W 093°59'0 0.0
2018-Feb-13 04:59N 29°49' W 093°59'0 0.0
2018-Feb-13 04:29N 29°49' W 093°59'0 0.0
2018-Feb-13 04:00N 29°49' W 093°59'0 0.1
2018-Feb-13 03:30N 29°49' W 093°59'3 6.1
2018-Feb-13 03:00N 29°51' W 093°56'3 6.5
2018-Feb-13 02:30N 29°54' W 093°54'3 5.7
2018-Feb-13 02:00N 29°56' W 093°52'3 5.8
2018-Feb-13 01:30N 29°59' W 093°50'4 7.6
2018-Feb-13 00:59N 30°00' W 093°46'14 6.7
2018-Feb-12 22:58N 30°04' W 093°31'3 6.5
2018-Feb-12 22:30N 30°04' W 093°27'3 6.8
2018-Feb-12 22:00N 30°04' W 093°23'2 4.0
2018-Feb-12 21:29N 30°04' W 093°21'1 2.4
2018-Feb-12 20:55N 30°05' W 093°20'2 4.1
2018-Feb-12 20:26N 30°06' W 093°19'0 0.0
2018-Feb-12 20:00N 30°06' W 093°19'0 0.2
2018-Feb-12 19:28N 30°06' W 093°19'0 0.4
2018-Feb-12 19:00N 30°06' W 093°19'0 0.0
2018-Feb-12 18:30N 30°06' W 093°19'0 0.3
2018-Feb-12 18:00N 30°06' W 093°19'2 3.7
2018-Feb-12 17:29N 30°08' W 093°20'3 6.9
2018-Feb-12 17:00N 30°11' W 093°19'3 6.4
2018-Feb-12 16:29N 30°13' W 093°16'2 4.1
2018-Feb-12 15:55N 30°15' W 093°14'2 2.3
2018-Feb-12 15:11N 30°15' W 093°13'1 3.8
2018-Feb-12 14:58N 30°15' W 093°12'0 0.0
2018-Feb-12 12:02N 30°15' W 093°12'0 0.0
2018-Feb-12 11:32N 30°15' W 093°12'0 0.0
2018-Feb-12 11:19N 30°15' W 093°12'0 0.0
2018-Feb-12 10:56N 30°15' W 093°12'0 0.0
2018-Feb-12 09:24N 30°15' W 093°12'0 0.0
2018-Feb-12 07:38N 30°15' W 093°12'0 0.0
2018-Feb-12 07:28N 30°15' W 093°12'0 0.0
2018-Feb-12 06:57N 30°15' W 093°12'0 0.0
2018-Feb-12 05:51N 30°15' W 093°12'0 0.1
2018-Feb-12 05:29N 30°15' W 093°12'0 0.0
2018-Feb-12 05:00N 30°15' W 093°12'0 0.0
2018-Feb-12 04:15N 30°15' W 093°12'0 0.0
2018-Feb-12 03:57N 30°15' W 093°12'0 0.0
2018-Feb-12 02:56N 30°15' W 093°12'0 0.1
2018-Feb-12 02:28N 30°15' W 093°12'0 0.0
2018-Feb-12 01:08N 30°15' W 093°12'0 0.3
2018-Feb-12 00:58N 30°15' W 093°12'1 3.1
2018-Feb-12 00:31N 30°15' W 093°14'1 2.0
2018-Feb-12 00:00N 30°14' W 093°15'1 0.9
2018-Feb-11 23:28N 30°14' W 093°15'1 3.0
2018-Feb-11 23:00N 30°13' W 093°16'3 6.2
2018-Feb-11 22:31N 30°11' W 093°19'3 5.1
2018-Feb-11 22:00N 30°09' W 093°20'3 5.7
2018-Feb-11 21:29N 30°06' W 093°19'2 4.3
2018-Feb-11 20:55N 30°05' W 093°17'2 5.7
2018-Feb-11 20:30N 30°03' W 093°16'3 5.5
2018-Feb-11 20:01N 30°01' W 093°14'6 5.8
2018-Feb-11 18:59N 29°56' W 093°09'43 3.9
2018-Feb-11 07:59N 29°51' W 092°20'1 1.8
2018-Feb-11 07:29N 29°50' W 092°19'1 1.9
2018-Feb-11 07:00N 29°50' W 092°18'1 2.3
2018-Feb-11 06:25N 29°49' W 092°17'1 2.6
2018-Feb-11 06:00N 29°49' W 092°16'1 2.7
2018-Feb-11 05:30N 29°48' W 092°15'2 3.2
2018-Feb-11 05:00N 29°47' W 092°13'2 3.5
2018-Feb-11 04:30N 29°47' W 092°11'0 1.0
2018-Feb-11 04:00N 29°47' W 092°10'1 3.0
2018-Feb-11 03:30N 29°47' W 092°09'3 5.8
2018-Feb-11 03:00N 29°48' W 092°06'68 4.5
2018-Feb-10 11:52N 29°32' W 090°50'2 5.8
2018-Feb-10 11:28N 29°32' W 090°47'2 4.8
2018-Feb-10 11:00N 29°33' W 090°45'2 4.6
2018-Feb-10 10:30N 29°35' W 090°43'2 4.7
2018-Feb-10 10:00N 29°37' W 090°42'1 2.1
2018-Feb-10 09:30N 29°36' W 090°41'2 4.0
2018-Feb-10 09:00N 29°35' W 090°39'  

Dump ship's entire track history